Terminal Aerodrome Forecast
Issued by NWS Duluth, MN

Home | Current Version | Previous Version | Text Only | Print | Product List | Glossary On
Versions: 1 2 3 4 5 6 7 8 9 10 11 12 13 14 15 16 17 18 19 20 21 22 23 24 25 26 27 28 29 30 31 32 33 34
000
FTUS43 KDLH 290500 RRA
TAFDLH
TAF
KDLH 290546Z 2906/3006 14008KT P6SM VCSH SCT012 OVC026
      TEMPO 2906/2910 3SM -SNPL BKN012 OVC025
     FM291100 13004KT P6SM OVC014
     FM291400 14004KT 6SM -PLSN BR OVC006
     FM291700 20005KT P6SM BKN012
     FM292300 29006KT P6SM BKN025=

USA.gov is the U.S. government's official web portal to all federal, state and local government web resources and services.